Desert Aire, Washington
Current Conditions -  °F | °C
As of 7:56 PM on Thursday 27 Nov 2014 (Local Time) from K1YT Reporting Station
Clear Clear  
Wind Chill: 52°   Ceiling: Unl
Heat Index: 52°   Visibility: 10mi
Dew Point: 44°   Wind: 17mph
Humidity: 73%   Direction: 180°S
Pressure: 29.76"   Gusts: 23mph
Location:  46.6873°N, 119.887°W
Report Text: K1YT 280356Z AUTO 18015G20KT 10SM CLR 11/07 A2976 RMK AO2 SLPNO T01120066
Loading
Personal Weather Stations






























Interactive Weather Map New forecast layout! Learn more

10-Day Weather Forecast

Advertisements
Track Severe Weather on mobile